createdAt,value
2016-11-10T11:00:01.299Z,931.55
2016-11-10T11:01:11.821Z,931.61
2016-11-10T11:02:22.340Z,931.64
2016-11-10T11:03:32.899Z,931.65
2016-11-10T11:04:43.432Z,931.74
2016-11-10T11:05:54.169Z,931.64
2016-11-10T11:07:05.199Z,931.73
2016-11-10T11:08:15.734Z,931.72
2016-11-10T11:09:26.260Z,931.71
2016-11-10T11:10:36.791Z,931.8
2016-11-10T11:11:47.429Z,931.81
2016-11-10T11:12:57.957Z,931.79
2016-11-10T11:14:08.488Z,931.84
2016-11-10T11:15:19.016Z,931.82
2016-11-10T11:16:29.560Z,931.84
2016-11-10T11:17:40.088Z,931.8
2016-11-10T11:18:50.626Z,931.76
2016-11-10T11:20:15.708Z,931.79
2016-11-10T11:21:26.293Z,931.73
2016-11-10T11:22:51.357Z,931.77
2016-11-10T11:24:01.892Z,931.8
2016-11-10T11:25:12.424Z,931.79
2016-11-10T11:26:37.509Z,931.82
2016-11-10T11:27:48.537Z,931.8
2016-11-10T11:28:59.666Z,931.82
2016-11-10T11:30:10.202Z,931.89
2016-11-10T11:31:35.263Z,931.84
2016-11-10T11:32:45.798Z,931.88
2016-11-10T11:34:10.958Z,931.85
2016-11-10T11:35:21.487Z,931.93
2016-11-10T11:36:32.026Z,931.94
2016-11-10T11:37:42.565Z,931.84
2016-11-10T11:38:53.098Z,931.87
2016-11-10T11:40:18.157Z,931.93
2016-11-10T11:41:28.689Z,931.91
2016-11-10T11:42:39.797Z,931.91
2016-11-10T11:43:50.478Z,931.93
2016-11-10T11:45:01.017Z,931.92
2016-11-10T11:46:11.551Z,931.94
2016-11-10T11:47:22.080Z,931.91
2016-11-10T11:48:32.615Z,931.9
2016-11-10T11:49:43.251Z,932
2016-11-10T11:50:53.782Z,931.95
2016-11-10T11:52:04.316Z,932.01
2016-11-10T11:53:14.847Z,932.04
2016-11-10T11:54:25.381Z,932
2016-11-10T11:55:35.924Z,932.07
2016-11-10T11:56:46.451Z,932
2016-11-10T11:57:56.985Z,932.05
2016-11-10T11:59:07.518Z,932
2016-11-10T12:00:18.047Z,931.99
2016-11-10T12:01:28.580Z,932.01
2016-11-10T12:02:39.637Z,932.03
2016-11-10T12:03:50.166Z,932
2016-11-10T12:05:01.200Z,931.97
2016-11-10T12:06:11.728Z,931.95
2016-11-10T12:07:22.362Z,931.99
2016-11-10T12:08:32.927Z,931.97
2016-11-10T12:09:43.494Z,931.98
2016-11-10T12:10:54.029Z,932
2016-11-10T12:12:04.593Z,931.99
2016-11-10T12:13:15.126Z,932.02
2016-11-10T12:14:25.657Z,932
2016-11-10T12:15:36.188Z,932.07
2016-11-10T12:16:46.726Z,932
2016-11-10T12:17:57.258Z,932.09
2016-11-10T12:19:07.902Z,932.07
2016-11-10T12:20:18.441Z,932.11
2016-11-10T12:21:28.974Z,932.01
2016-11-10T12:22:54.037Z,932.01
2016-11-10T12:24:04.571Z,932.09
2016-11-10T12:25:15.204Z,931.94
2016-11-10T12:26:25.740Z,932.04
2016-11-10T12:27:36.308Z,932.07
2016-11-10T12:28:46.878Z,932.05
2016-11-10T12:29:57.514Z,932.06
2016-11-10T12:31:08.056Z,932.05
2016-11-10T12:32:18.591Z,931.99
2016-11-10T12:33:29.128Z,932.04
2016-11-10T12:34:39.666Z,932.07
2016-11-10T12:35:50.401Z,932.04
2016-11-10T12:37:00.946Z,932.06
2016-11-10T12:38:11.479Z,931.99
2016-11-10T12:39:36.542Z,932.03
2016-11-10T12:40:47.082Z,932
2016-11-10T12:41:58.516Z,931.97
2016-11-10T12:43:09.554Z,931.97
2016-11-10T12:44:20.096Z,931.88
2016-11-10T12:45:31.042Z,932
2016-11-10T12:46:41.779Z,931.9
2016-11-10T12:47:52.316Z,931.96
2016-11-10T12:49:02.849Z,931.99
2016-11-10T12:50:13.381Z,932
2016-11-10T12:51:23.949Z,932.01
2016-11-10T12:52:34.980Z,931.99
2016-11-10T12:53:45.516Z,932
2016-11-10T12:54:56.050Z,932.02
2016-11-10T12:56:06.592Z,932.05
2016-11-10T12:57:17.129Z,931.85
2016-11-10T12:58:28.196Z,931.98
2016-11-10T12:59:38.957Z,931.93
2016-11-10T13:01:04.022Z,931.97
2016-11-10T13:02:15.058Z,931.88
2016-11-10T13:03:25.598Z,931.94
2016-11-10T13:04:36.349Z,932
2016-11-10T13:05:46.883Z,931.89
2016-11-10T13:06:57.423Z,931.91
2016-11-10T13:08:07.990Z,931.89
2016-11-10T13:09:18.533Z,931.93
2016-11-10T13:10:29.143Z,931.91
2016-11-10T13:11:39.677Z,931.9
2016-11-10T13:12:50.221Z,931.86
2016-11-10T13:14:00.807Z,931.95
2016-11-10T13:15:12.539Z,931.87
2016-11-10T13:16:23.077Z,931.89
2016-11-10T13:17:33.618Z,931.88
2016-11-10T13:18:44.159Z,931.88
2016-11-10T13:19:54.699Z,931.92
2016-11-10T13:21:06.232Z,931.92
2016-11-10T13:22:17.311Z,931.97
2016-11-10T13:23:27.848Z,931.89
2016-11-10T13:24:38.404Z,931.85
2016-11-10T13:25:48.945Z,931.93
2016-11-10T13:26:59.482Z,931.91
2016-11-10T13:28:10.057Z,931.96
2016-11-10T13:29:21.594Z,931.97
2016-11-10T13:30:32.630Z,931.93
2016-11-10T13:31:58.699Z,931.91
2016-11-10T13:33:09.240Z,931.91
2016-11-10T13:35:45.341Z,931.84
2016-11-10T13:36:56.406Z,931.85
2016-11-10T13:38:06.942Z,931.84
2016-11-10T13:39:17.514Z,931.84
2016-11-10T13:40:29.158Z,931.89
2016-11-10T13:41:40.199Z,931.6
2016-11-10T13:42:50.936Z,931.88
2016-11-10T13:44:01.474Z,931.86
2016-11-10T13:45:27.531Z,931.85
2016-11-10T13:46:38.087Z,931.9
2016-11-10T13:47:48.626Z,931.88
2016-11-10T13:48:59.249Z,931.92
2016-11-10T13:50:10.147Z,931.85
2016-11-10T13:51:20.563Z,931.9
2016-11-10T13:52:30.982Z,931.89
2016-11-10T13:53:41.603Z,931.86
2016-11-10T13:54:52.984Z,931.85
2016-11-10T13:56:03.406Z,931.89
2016-11-10T13:57:13.823Z,931.85
2016-11-10T13:58:25.252Z,931.88
2016-11-10T13:59:35.686Z,931.86
2016-11-10T14:00:46.103Z,931.77
2016-11-10T14:01:56.523Z,931.85
2016-11-10T14:03:06.940Z,931.87
2016-11-10T14:04:17.842Z,931.84
2016-11-10T14:05:28.258Z,931.8
2016-11-10T14:08:03.652Z,931.81
2016-11-10T14:09:14.075Z,931.77
2016-11-10T14:10:24.974Z,931.8
2016-11-10T14:11:35.803Z,931.7
2016-11-10T14:13:01.769Z,931.62
2016-11-10T14:14:12.186Z,931.54
2016-11-10T14:15:23.087Z,931.67
2016-11-10T14:16:33.634Z,931.6
2016-11-10T14:17:44.534Z,931.6
2016-11-10T14:18:54.948Z,931.56
2016-11-10T14:20:05.375Z,931.57
2016-11-10T14:21:15.791Z,931.58
2016-11-10T14:22:26.208Z,931.54
2016-11-10T14:23:37.597Z,931.54
2016-11-10T14:24:48.515Z,931.38
2016-11-10T14:26:13.485Z,931.48
2016-11-10T14:27:24.102Z,931.54
2016-11-10T14:28:34.524Z,931.44
2016-11-10T14:29:59.495Z,931.45
2016-11-10T14:31:09.918Z,931.5
2016-11-10T14:32:20.566Z,931.5
2016-11-10T14:33:45.541Z,931.48
2016-11-10T14:34:55.957Z,931.52
2016-11-10T14:36:06.369Z,931.46
2016-11-10T14:37:16.781Z,931.51
2016-11-10T14:38:27.194Z,931.58
2016-11-10T14:39:37.609Z,931.5
2016-11-10T14:40:48.029Z,931.57
2016-11-10T14:41:58.447Z,931.56
2016-11-10T14:43:08.892Z,931.56
2016-11-10T14:44:19.306Z,931.52
2016-11-10T14:45:29.759Z,931.52
2016-11-10T14:46:40.663Z,931.52
2016-11-10T14:47:51.656Z,931.49
2016-11-10T14:49:02.270Z,931.5
2016-11-10T14:50:12.686Z,931.57
2016-11-10T14:51:23.099Z,931.57
2016-11-10T14:52:34.002Z,931.61
2016-11-10T14:53:44.902Z,931.54
2016-11-10T14:54:55.321Z,931.56
2016-11-10T14:56:05.743Z,931.65
2016-11-10T14:57:16.166Z,931.57
2016-11-10T14:58:26.702Z,931.57
2016-11-10T14:59:37.267Z,931.53
2016-11-10T15:01:02.338Z,931.55
2016-11-10T15:02:12.880Z,931.58
2016-11-10T15:03:23.417Z,931.54
2016-11-10T15:04:33.953Z,931.51
2016-11-10T15:05:45.421Z,931.54
2016-11-10T15:06:55.959Z,931.48
2016-11-10T15:08:07.022Z,931.47
2016-11-10T15:09:17.558Z,931.42
2016-11-10T15:10:28.125Z,931.5
2016-11-10T15:11:39.166Z,931.42
2016-11-10T15:12:50.198Z,931.39
2016-11-10T15:14:00.755Z,931.41
2016-11-10T15:15:11.291Z,931.35
2016-11-10T15:16:21.834Z,931.38
2016-11-10T15:17:32.368Z,931.35
2016-11-10T15:18:42.906Z,931.38
2016-11-10T15:19:53.943Z,931.33
2016-11-10T15:21:19.007Z,931.32
2016-11-10T15:22:29.548Z,931.22
2016-11-10T15:23:54.714Z,931.25
2016-11-10T15:25:05.251Z,931.28
2016-11-10T15:26:15.785Z,931.22
2016-11-10T15:27:26.354Z,931.28
2016-11-10T15:28:37.090Z,931.26
2016-11-10T15:29:47.632Z,931.28
2016-11-10T15:30:58.175Z,931.26
2016-11-10T15:32:08.723Z,931.28
2016-11-10T15:33:33.789Z,931.19
2016-11-10T15:34:44.329Z,931.19
2016-11-10T15:37:21.087Z,931.19
2016-11-10T15:38:31.633Z,931.24
2016-11-10T15:39:42.664Z,931.24
2016-11-10T15:40:53.200Z,931.21
2016-11-10T15:42:03.735Z,931.16
2016-11-10T15:43:28.805Z,931.15
2016-11-10T15:44:39.539Z,931.14
2016-11-10T15:45:50.090Z,931.15
2016-11-10T15:47:00.626Z,931.16
2016-11-10T15:48:40.223Z,931.11
2016-11-10T15:49:50.756Z,931.16
2016-11-10T15:51:01.289Z,931.16
2016-11-10T15:52:11.822Z,931.23
2016-11-10T15:53:22.360Z,931.16
2016-11-10T15:54:32.893Z,931.22
2016-11-10T15:55:43.426Z,931.16
2016-11-10T15:56:53.961Z,931.17
2016-11-10T15:58:04.495Z,931.11
2016-11-10T15:59:15.033Z,931.07
2016-11-10T16:00:40.093Z,931.05
2016-11-10T16:01:50.628Z,931.06
2016-11-10T16:03:15.692Z,931.04
2016-11-10T16:04:26.213Z,931.03
2016-11-10T16:05:36.777Z,931.05
2016-11-10T16:06:47.683Z,930.99
2016-11-10T16:07:58.095Z,930.91
2016-11-10T16:09:08.518Z,930.98
2016-11-10T16:10:18.935Z,930.93
2016-11-10T16:11:29.445Z,930.93
2016-11-10T16:12:39.864Z,930.92
2016-11-10T16:13:50.282Z,930.95
2016-11-10T16:15:15.520Z,930.94
2016-11-10T16:16:26.416Z,930.88
2016-11-10T16:17:36.937Z,930.91
2016-11-10T16:18:47.355Z,930.82
2016-11-10T16:19:57.770Z,930.84
2016-11-10T16:21:08.186Z,930.81
2016-11-10T16:22:18.602Z,930.76
2016-11-10T16:23:43.571Z,930.73
2016-11-10T16:24:54.023Z,930.72
2016-11-10T16:26:04.456Z,930.72
2016-11-10T16:27:14.873Z,930.68
2016-11-10T16:28:54.394Z,930.66
2016-11-10T16:30:04.826Z,930.63
2016-11-10T16:31:15.244Z,930.6
2016-11-10T16:33:50.626Z,930.63
2016-11-10T16:35:01.043Z,930.64
2016-11-10T16:36:40.567Z,930.65
2016-11-10T16:38:05.533Z,930.73
2016-11-10T16:39:15.954Z,930.71
2016-11-10T16:40:26.367Z,930.65
2016-11-10T16:41:36.784Z,930.65
2016-11-10T16:42:47.198Z,930.64
2016-11-10T16:43:57.626Z,930.63
2016-11-10T16:45:08.066Z,930.62
2016-11-10T16:46:18.484Z,930.61
2016-11-10T16:47:29.384Z,930.62
2016-11-10T16:48:39.797Z,930.69
2016-11-10T16:50:05.251Z,930.65
2016-11-10T16:51:15.668Z,930.63
2016-11-10T16:52:26.602Z,930.62
2016-11-10T16:53:37.024Z,930.58
2016-11-10T16:55:02.195Z,930.56
2016-11-10T16:56:13.103Z,930.52
2016-11-10T16:57:23.521Z,930.55
2016-11-10T16:58:33.943Z,930.53
2016-11-10T16:59:58.943Z,930.55
2016-11-10T17:01:09.363Z,930.5
2016-11-10T17:02:19.779Z,930.48
2016-11-10T17:03:30.194Z,930.51
2016-11-10T17:04:40.614Z,930.44
2016-11-10T17:06:05.785Z,930.45
2016-11-10T17:07:16.203Z,930.53
2016-11-10T17:08:26.616Z,930.48
2016-11-10T17:11:02.001Z,930.42
2016-11-10T17:12:12.429Z,930.51
2016-11-10T17:13:23.463Z,930.52
2016-11-10T17:14:34.495Z,930.51
2016-11-10T17:15:45.060Z,930.43
2016-11-10T17:16:55.594Z,930.46
2016-11-10T17:18:06.130Z,930.45
2016-11-10T17:19:16.669Z,930.41
2016-11-10T17:20:27.208Z,930.34
2016-11-10T17:21:37.748Z,930.39
2016-11-10T17:22:48.488Z,930.41
2016-11-10T17:23:59.026Z,930.41
2016-11-10T17:25:09.564Z,930.41
2016-11-10T17:26:20.098Z,930.4
2016-11-10T17:27:30.634Z,930.38
2016-11-10T17:28:41.270Z,930.28
2016-11-10T17:29:51.810Z,930.33
2016-11-10T17:32:27.415Z,930.29
2016-11-10T17:33:52.482Z,930.3
2016-11-10T17:35:03.018Z,930.3
2016-11-10T17:36:13.558Z,930.33
2016-11-10T17:37:24.095Z,930.36
2016-11-10T17:38:34.640Z,930.32
2016-11-10T17:39:45.237Z,930.23
2016-11-10T17:40:55.775Z,930.22
2016-11-10T17:42:06.314Z,930.23
2016-11-10T17:43:16.852Z,930.25
2016-11-10T17:44:27.391Z,930.17
2016-11-10T17:45:38.632Z,930.11
2016-11-10T17:46:49.170Z,930.09
2016-11-10T17:47:59.707Z,930.09
2016-11-10T17:49:10.247Z,930.1
2016-11-10T17:50:35.311Z,930.08
2016-11-10T17:52:01.075Z,930.12
2016-11-10T17:53:11.615Z,930.1
2016-11-10T17:54:22.153Z,930.1
2016-11-10T17:55:32.696Z,930.02
2016-11-10T17:56:43.236Z,930.02
2016-11-10T17:57:53.770Z,930
2016-11-10T17:59:04.308Z,929.98
2016-11-10T18:00:15.390Z,929.96
2016-11-10T18:01:40.656Z,929.95
2016-11-10T18:02:51.193Z,929.93
2016-11-10T18:04:01.731Z,929.92
2016-11-10T18:05:12.275Z,929.97
2016-11-10T18:06:22.814Z,929.99
2016-11-10T18:07:33.351Z,930.03
2016-11-10T18:08:43.932Z,930.01
2016-11-10T18:10:09.001Z,929.95
2016-11-10T18:11:19.521Z,929.97
2016-11-10T18:12:29.972Z,929.9
2016-11-10T18:13:40.520Z,929.91
2016-11-10T18:14:50.966Z,929.94
2016-11-10T18:16:01.420Z,929.93
2016-11-10T18:17:11.868Z,929.93
2016-11-10T18:18:22.313Z,929.91
2016-11-10T18:19:32.756Z,929.93
2016-11-10T18:20:43.083Z,929.84
2016-11-10T18:21:53.408Z,929.75
2016-11-10T18:23:03.737Z,929.78
2016-11-10T18:24:14.067Z,929.7
2016-11-10T18:25:24.396Z,929.7
2016-11-10T18:26:34.725Z,929.69
2016-11-10T18:28:14.194Z,929.7
2016-11-10T18:29:24.528Z,929.71
2016-11-10T18:30:34.860Z,929.65
2016-11-10T18:31:45.187Z,929.59
2016-11-10T18:32:55.516Z,929.62
2016-11-10T18:34:20.412Z,929.64
2016-11-10T18:35:30.742Z,929.63
2016-11-10T18:36:55.640Z,929.65
2016-11-10T18:38:05.969Z,929.65
2016-11-10T18:39:16.298Z,929.63
2016-11-10T18:40:41.396Z,929.6
2016-11-10T18:41:51.728Z,929.58
2016-11-10T18:43:02.057Z,929.61
2016-11-10T18:44:12.388Z,929.57
2016-11-10T18:45:22.716Z,929.6
2016-11-10T18:46:33.246Z,929.64
2016-11-10T18:47:58.144Z,929.7
2016-11-10T18:49:08.472Z,929.72
2016-11-10T18:50:33.916Z,929.79
2016-11-10T18:51:44.243Z,929.74
2016-11-10T18:52:54.565Z,929.74
2016-11-10T18:54:04.896Z,929.73
2016-11-10T18:55:15.255Z,929.72
2016-11-10T18:56:25.579Z,929.76
2016-11-10T18:57:35.902Z,929.79
2016-11-10T18:58:46.229Z,929.82
2016-11-10T18:59:56.554Z,929.78
2016-11-10T19:01:06.882Z,929.81
2016-11-10T19:02:17.208Z,929.79
2016-11-10T19:03:27.534Z,929.85
2016-11-10T19:04:52.433Z,929.88
2016-11-10T19:06:02.764Z,929.9
2016-11-10T19:07:13.091Z,929.89
2016-11-10T19:08:23.419Z,929.89
2016-11-10T19:09:34.427Z,929.88
2016-11-10T19:10:44.758Z,929.84
2016-11-10T19:11:55.081Z,929.8
2016-11-10T19:13:05.407Z,929.79
2016-11-10T19:14:15.736Z,929.75
2016-11-10T19:15:27.378Z,929.67
2016-11-10T19:16:38.136Z,929.63
2016-11-10T19:17:48.457Z,929.63
2016-11-10T19:19:14.340Z,929.62
2016-11-10T19:20:39.237Z,929.6
2016-11-10T19:21:49.569Z,929.56
2016-11-10T19:22:59.891Z,929.54
2016-11-10T19:25:35.320Z,929.54
2016-11-10T19:27:00.218Z,929.64
2016-11-10T19:29:36.778Z,929.66
2016-11-10T19:30:47.221Z,929.68
2016-11-10T19:32:12.211Z,929.61
2016-11-10T19:33:22.656Z,929.57
2016-11-10T19:34:33.108Z,929.52
2016-11-10T19:35:43.554Z,929.51
2016-11-10T19:36:53.996Z,929.51
2016-11-10T19:38:04.440Z,929.48
2016-11-10T19:39:15.382Z,929.45
2016-11-10T19:41:50.930Z,929.43
2016-11-10T19:43:01.470Z,929.44
2016-11-10T19:44:12.015Z,929.41
2016-11-10T19:45:22.552Z,929.46
2016-11-10T19:46:33.290Z,929.57
2016-11-10T19:47:43.833Z,929.62
2016-11-10T19:48:54.368Z,929.73
2016-11-10T19:50:04.932Z,929.69
2016-11-10T19:51:15.670Z,929.62
2016-11-10T19:52:26.210Z,929.57
2016-11-10T19:53:37.099Z,929.55
2016-11-10T19:54:47.635Z,929.68
2016-11-10T19:55:58.199Z,929.83
2016-11-10T19:57:08.738Z,930.05
2016-11-10T19:58:19.277Z,930.25
2016-11-10T19:59:29.811Z,930.55
2016-11-10T20:00:40.857Z,930.55
2016-11-10T20:01:51.411Z,930.69
2016-11-10T20:03:02.148Z,930.82
2016-11-10T20:04:12.682Z,931.03
2016-11-10T20:05:23.216Z,931.35
2016-11-10T20:06:48.284Z,931.74
2016-11-10T20:07:58.821Z,931.21
2016-11-10T20:09:09.949Z,930.68
2016-11-10T20:10:20.478Z,930.37
2016-11-10T20:11:31.015Z,930.26
2016-11-10T20:12:41.549Z,930.2
2016-11-10T20:13:52.081Z,930.25
2016-11-10T20:15:02.612Z,930.25
2016-11-10T20:16:13.155Z,930.26
2016-11-10T20:17:23.701Z,930.27
2016-11-10T20:18:34.231Z,930.19
2016-11-10T20:19:45.273Z,930.16
2016-11-10T20:20:55.806Z,930.12
2016-11-10T20:22:06.340Z,930.08
2016-11-10T20:23:16.871Z,930.12
2016-11-10T20:24:27.433Z,930.11
2016-11-10T20:25:37.965Z,930.15
2016-11-10T20:26:48.497Z,930.16
2016-11-10T20:27:59.028Z,930.19
2016-11-10T20:29:09.563Z,930.21
2016-11-10T20:30:20.092Z,930.26
2016-11-10T20:31:30.724Z,930.3
2016-11-10T20:32:41.255Z,930.22
2016-11-10T20:33:51.785Z,930.2
2016-11-10T20:35:02.318Z,930.18
2016-11-10T20:36:12.863Z,930.19
2016-11-10T20:37:23.495Z,930.23
2016-11-10T20:38:34.029Z,930.25
2016-11-10T20:39:44.558Z,930.34
2016-11-10T20:40:55.631Z,930.41
2016-11-10T20:42:06.666Z,930.46
2016-11-10T20:43:17.297Z,930.59
2016-11-10T20:44:27.829Z,930.6
2016-11-10T20:45:38.362Z,930.66
2016-11-10T20:46:49.423Z,930.66
2016-11-10T20:48:00.451Z,930.71
2016-11-10T20:49:11.537Z,930.68
2016-11-10T20:50:22.068Z,930.69
2016-11-10T20:51:32.607Z,930.67
2016-11-10T20:52:43.142Z,930.68
2016-11-10T20:53:53.681Z,930.65
2016-11-10T20:55:04.315Z,930.68
2016-11-10T20:56:14.843Z,930.74
2016-11-10T20:59:04.962Z,930.75
2016-11-10T21:01:40.555Z,930.75
2016-11-10T21:02:51.097Z,930.74
2016-11-10T21:04:02.122Z,930.74
2016-11-10T21:05:12.654Z,930.76
2016-11-10T21:06:23.188Z,930.84
2016-11-10T21:07:33.731Z,930.94
2016-11-10T21:08:44.264Z,930.99
2016-11-10T21:09:54.791Z,931.06
2016-11-10T21:11:05.410Z,931.11
2016-11-10T21:12:15.823Z,931.14
2016-11-10T21:13:26.960Z,931.08
2016-11-10T21:14:51.930Z,930.96
2016-11-10T21:16:02.832Z,930.86
2016-11-10T21:17:13.446Z,930.94
2016-11-10T21:18:23.858Z,931.02
2016-11-10T21:19:34.273Z,931.07
2016-11-10T21:20:44.694Z,931.07
2016-11-10T21:21:55.304Z,931.11
2016-11-10T21:23:05.721Z,931.12
2016-11-10T21:24:16.142Z,931.12
2016-11-10T21:25:27.048Z,931.1
2016-11-10T21:26:37.945Z,931.1
2016-11-10T21:27:48.359Z,931.05
2016-11-10T21:28:58.773Z,930.98
2016-11-10T21:30:09.190Z,930.98
2016-11-10T21:31:19.603Z,931.01
2016-11-10T21:32:30.014Z,930.91
2016-11-10T21:33:40.627Z,930.87
2016-11-10T21:34:51.046Z,930.9
2016-11-10T21:37:26.430Z,931.06
2016-11-10T21:38:36.847Z,931.15
2016-11-10T21:39:47.261Z,931.24
2016-11-10T21:40:57.675Z,931.35
2016-11-10T21:42:08.084Z,931.34
2016-11-10T21:43:33.057Z,931.44
2016-11-10T21:44:43.789Z,931.5
2016-11-10T21:45:54.354Z,931.52
2016-11-10T21:47:04.888Z,931.52
2016-11-10T21:48:15.423Z,931.59
2016-11-10T21:49:25.955Z,931.55
2016-11-10T21:50:36.484Z,931.56
2016-11-10T21:51:47.022Z,931.54
2016-11-10T21:52:57.553Z,931.53
2016-11-10T21:54:22.621Z,931.5
2016-11-10T21:55:33.232Z,931.5
2016-11-10T21:56:43.678Z,931.58
2016-11-10T21:57:54.115Z,931.6
2016-11-10T21:59:04.555Z,931.68
2016-11-10T22:00:15.099Z,931.75
2016-11-10T22:01:25.539Z,931.7
2016-11-10T22:02:35.989Z,931.7
2016-11-10T22:03:46.426Z,931.72
2016-11-10T22:04:56.868Z,931.73
2016-11-10T22:06:07.326Z,931.71
2016-11-10T22:07:17.767Z,931.7
2016-11-10T22:08:28.203Z,931.76
2016-11-10T22:09:38.683Z,931.73
2016-11-10T22:10:49.122Z,931.78
2016-11-10T22:11:59.762Z,931.77
2016-11-10T22:13:24.747Z,931.74
2016-11-10T22:14:35.183Z,931.78
2016-11-10T22:15:45.623Z,931.8
2016-11-10T22:16:56.063Z,931.66
2016-11-10T22:18:06.501Z,931.64
2016-11-10T22:19:16.945Z,931.56
2016-11-10T22:20:41.929Z,931.49
2016-11-10T22:21:52.374Z,931.62
2016-11-10T22:23:02.853Z,931.62
2016-11-10T22:24:13.299Z,931.66
2016-11-10T22:25:23.744Z,931.71
2016-11-10T22:26:34.182Z,931.7
2016-11-10T22:27:44.623Z,931.66
2016-11-10T22:28:55.058Z,931.67
2016-11-10T22:30:05.495Z,931.69
2016-11-10T22:31:15.931Z,931.74
2016-11-10T22:32:26.406Z,931.81
2016-11-10T22:33:36.844Z,931.79
2016-11-10T22:34:47.287Z,931.76
2016-11-10T22:35:57.728Z,931.78
2016-11-10T22:37:08.208Z,931.8
2016-11-10T22:38:18.666Z,931.78
2016-11-10T22:39:29.104Z,931.83
2016-11-10T22:40:39.561Z,931.84
2016-11-10T22:41:50.093Z,931.78
2016-11-10T22:43:00.627Z,931.76
2016-11-10T22:44:11.156Z,931.8
2016-11-10T22:45:21.692Z,931.82
2016-11-10T22:46:46.747Z,931.86
2016-11-10T22:47:57.280Z,931.89
2016-11-10T22:49:07.814Z,931.92
2016-11-10T22:50:18.344Z,931.92
2016-11-10T22:51:28.881Z,931.92
2016-11-10T22:52:39.416Z,931.92
2016-11-10T22:53:49.947Z,931.96
2016-11-10T22:55:00.516Z,932.01
2016-11-10T22:56:11.147Z,932.02
2016-11-10T22:57:21.676Z,932.12
2016-11-10T22:58:32.206Z,932.14
2016-11-10T22:59:42.744Z,932.17
2016-11-10T23:01:08.302Z,932.14
2016-11-10T23:02:18.936Z,932.1
2016-11-10T23:03:29.473Z,932.16
2016-11-10T23:04:40.005Z,932.18
2016-11-10T23:05:50.540Z,932.16
2016-11-10T23:08:26.628Z,932.2
2016-11-10T23:09:37.161Z,932.2
2016-11-10T23:10:47.692Z,932.17
2016-11-10T23:11:58.225Z,932.18
2016-11-10T23:13:08.858Z,932.17
2016-11-10T23:14:19.387Z,932.21
2016-11-10T23:15:29.917Z,932.22
2016-11-10T23:16:40.946Z,932.2
2016-11-10T23:17:51.505Z,932.27
2016-11-10T23:19:02.050Z,932.27
2016-11-10T23:20:12.584Z,932.25
2016-11-10T23:21:23.116Z,932.27
2016-11-10T23:22:33.650Z,932.29
2016-11-10T23:23:44.276Z,932.3
2016-11-10T23:24:54.688Z,932.28
2016-11-10T23:26:05.087Z,932.38
2016-11-10T23:27:15.416Z,932.38
2016-11-10T23:28:25.740Z,932.37
2016-11-10T23:29:36.061Z,932.44
2016-11-10T23:30:46.389Z,932.47
2016-11-10T23:31:56.718Z,932.5
2016-11-10T23:33:07.041Z,932.51
2016-11-10T23:34:17.371Z,932.5
2016-11-10T23:35:27.818Z,932.47
2016-11-10T23:36:52.707Z,932.53
2016-11-10T23:38:03.028Z,932.62
2016-11-10T23:39:13.348Z,932.64
2016-11-10T23:40:23.669Z,932.66
2016-11-10T23:41:34.570Z,932.72
2016-11-10T23:42:45.380Z,932.78
2016-11-10T23:43:55.742Z,932.76
2016-11-10T23:45:06.068Z,932.8
2016-11-10T23:46:16.491Z,932.84
2016-11-10T23:47:26.818Z,932.83
2016-11-10T23:48:37.141Z,932.9
2016-11-10T23:49:47.467Z,932.9
2016-11-10T23:50:57.798Z,932.95
2016-11-10T23:52:08.218Z,932.92
2016-11-10T23:53:18.537Z,932.92
2016-11-10T23:54:28.860Z,932.93
2016-11-10T23:55:39.179Z,932.94
2016-11-10T23:56:49.533Z,932.91
2016-11-10T23:57:59.955Z,932.94
2016-11-10T23:59:10.277Z,932.98
